Time;durP1;ratioP1;P1;durP2;ratioP2;P2;SDS_P1;SDS_P2;PMS_P1;PMS_P2;Temp;Humidity;BMP_temperature;BMP_pressure;BME280_temperature;BME280_humidity;BME280_pressure;Samples;Min_cycle;Max_cycle;Signal;HPM_P1;HPM_P2
2022/12/24 00:01:43;;;;;;;14.82;9.70;;;7.90;99.90;;;;;;5036831;28;20591;-79
2022/12/24 00:04:10;;;;;;;12.40;10.30;;;7.80;99.90;;;;;;5029578;28;20207;-80
2022/12/24 00:06:37;;;;;;;12.77;9.93;;;7.80;99.90;;;;;;5035945;28;20192;-80
2022/12/24 00:09:04;;;;;;;13.25;9.18;;;7.90;99.90;;;;;;5037377;28;20248;-80
2022/12/24 00:11:31;;;;;;;14.30;8.80;;;7.90;99.90;;;;;;5039389;28;20199;-81
2022/12/24 00:13:59;;;;;;;14.55;10.50;;;7.80;99.90;;;;;;5037318;28;20210;-80
2022/12/24 00:16:26;;;;;;;14.38;10.45;;;7.70;99.90;;;;;;5036738;28;20292;-81
2022/12/24 00:18:54;;;;;;;13.98;10.40;;;7.70;99.90;;;;;;5036514;28;20231;-80
2022/12/24 00:21:21;;;;;;;14.13;10.27;;;7.70;99.90;;;;;;5036525;28;20231;-80
2022/12/24 00:23:48;;;;;;;16.00;9.82;;;7.80;99.90;;;;;;5036761;28;20709;-81
2022/12/24 00:26:15;;;;;;;13.15;10.20;;;7.70;99.90;;;;;;5037117;28;20276;-79
2022/12/24 00:28:42;;;;;;;13.60;10.35;;;7.70;99.90;;;;;;5036619;28;20220;-79
2022/12/24 00:31:13;;;;;;;12.18;8.52;;;7.70;99.90;;;;;;5036881;28;20250;-79
2022/12/24 00:33:40;;;;;;;14.95;10.80;;;7.70;99.90;;;;;;5036719;28;20219;-80
2022/12/24 00:36:08;;;;;;;13.77;9.18;;;7.60;99.90;;;;;;5036408;28;20286;-80
2022/12/24 00:38:36;;;;;;;13.13;9.82;;;7.70;99.90;;;;;;5035633;28;20230;-77
2022/12/24 00:41:05;;;;;;;14.65;9.27;;;7.60;99.90;;;;;;5035619;28;20204;-80
2022/12/24 00:43:33;;;;;;;16.40;10.82;;;7.70;99.90;;;;;;5036197;28;20187;-80
2022/12/24 00:46:00;;;;;;;13.20;10.00;;;7.60;99.90;;;;;;5036456;28;20210;-80
2022/12/24 00:48:29;;;;;;;11.07;9.05;;;7.70;99.90;;;;;;5034863;28;20977;-79
2022/12/24 00:50:56;;;;;;;15.18;9.90;;;7.70;99.90;;;;;;5035558;28;20200;-80
2022/12/24 00:53:23;;;;;;;15.00;9.60;;;7.70;99.90;;;;;;5036066;28;20312;-80
2022/12/24 00:55:50;;;;;;;19.77;10.60;;;7.70;99.90;;;;;;5036113;28;20188;-80
2022/12/24 00:58:17;;;;;;;13.20;9.45;;;7.60;99.90;;;;;;5035550;28;20262;-79
2022/12/24 01:00:44;;;;;;;14.02;10.25;;;7.60;99.90;;;;;;5034665;28;20193;-79
2022/12/24 01:03:10;;;;;;;13.60;10.25;;;7.70;99.90;;;;;;5036012;28;20208;-80
2022/12/24 01:05:39;;;;;;;12.23;9.20;;;7.70;99.90;;;;;;5035974;28;20294;-78
2022/12/24 01:08:05;;;;;;;13.20;10.10;;;7.70;99.90;;;;;;5045768;28;20193;-79
2022/12/24 01:10:32;;;;;;;15.55;10.35;;;7.60;99.90;;;;;;5035002;28;20259;-78
2022/12/24 01:13:01;;;;;;;14.75;10.65;;;7.70;99.90;;;;;;5035825;28;20223;-78
2022/12/24 01:15:28;;;;;;;13.15;9.02;;;7.70;99.90;;;;;;5036048;28;20210;-79
2022/12/24 01:17:55;;;;;;;15.30;9.80;;;7.70;99.90;;;;;;5035595;28;20662;-79
2022/12/24 01:20:22;;;;;;;10.98;8.82;;;7.70;99.90;;;;;;5035064;28;20409;-80
2022/12/24 01:22:50;;;;;;;10.18;8.52;;;7.80;99.90;;;;;;5035907;28;20276;-79
2022/12/24 01:25:18;;;;;;;12.25;9.18;;;7.80;99.90;;;;;;5035648;28;20185;-81
2022/12/24 01:27:45;;;;;;;10.15;8.35;;;7.90;99.90;;;;;;5034968;28;20234;-79
2022/12/24 01:30:14;;;;;;;11.30;8.75;;;7.80;99.90;;;;;;5034833;28;20303;-79
2022/12/24 01:32:42;;;;;;;11.90;8.40;;;7.80;99.90;;;;;;5035966;28;20196;-77
2022/12/24 01:35:11;;;;;;;13.20;9.38;;;7.80;99.90;;;;;;5034737;28;20639;-81
2022/12/24 01:37:38;;;;;;;15.77;9.88;;;7.80;99.90;;;;;;5035736;28;20212;-80
2022/12/24 01:45:50;;;;;;;11.00;8.98;;;7.90;99.90;;;;;;5036171;28;20177;-80
2022/12/24 01:48:26;;;;;;;13.13;9.40;;;7.90;99.90;;;;;;5035698;28;20184;-78
2022/12/24 01:51:00;;;;;;;13.73;8.85;;;7.90;99.90;;;;;;5035149;28;20275;-80
2022/12/24 01:53:29;;;;;;;8.93;7.35;;;8.00;99.90;;;;;;5035042;28;20200;-78
2022/12/24 01:55:58;;;;;;;9.10;7.35;;;7.90;99.90;;;;;;5035331;28;20287;-80
2022/12/24 01:58:26;;;;;;;12.70;9.38;;;8.00;99.90;;;;;;5034631;28;20238;-79
2022/12/24 02:00:53;;;;;;;13.07;9.20;;;8.00;99.90;;;;;;5034349;28;20208;-80
2022/12/24 02:03:22;;;;;;;12.95;9.95;;;7.90;99.90;;;;;;5034046;28;20205;-79
2022/12/24 02:05:52;;;;;;;11.02;9.55;;;7.90;99.90;;;;;;5034963;28;20637;-79
2022/12/24 02:08:19;;;;;;;13.15;9.50;;;7.90;99.90;;;;;;5035187;28;20631;-81
2022/12/24 02:10:47;;;;;;;12.70;7.93;;;8.00;99.90;;;;;;5034798;28;20250;-80
2022/12/24 02:13:20;;;;;;;9.77;8.48;;;8.00;99.90;;;;;;5035486;28;20274;-80
2022/12/24 02:15:58;;;;;;;11.38;8.60;;;7.90;99.90;;;;;;5034917;28;20250;-80
2022/12/24 02:18:33;;;;;;;15.20;9.00;;;8.00;99.90;;;;;;5033854;28;20253;-81
2022/12/24 02:21:35;;;;;;;11.85;9.00;;;7.90;99.90;;;;;;5034194;28;20685;-81
2022/12/24 02:24:26;;;;;;;12.95;8.48;;;7.80;99.90;;;;;;5030573;28;20202;-80
2022/12/24 02:27:26;;;;;;;13.10;7.68;;;7.80;99.90;;;;;;5034850;28;20607;-80
2022/12/24 02:30:07;;;;;;;12.10;8.77;;;7.80;99.90;;;;;;5030180;28;20387;-80
2022/12/24 02:32:43;;;;;;;9.65;7.20;;;7.80;99.90;;;;;;5034476;28;20615;-79
2022/12/24 02:35:15;;;;;;;9.77;6.43;;;7.80;99.90;;;;;;5033702;28;20608;-80
2022/12/24 02:37:45;;;;;;;9.18;7.50;;;7.80;99.90;;;;;;5034675;28;20576;-79
2022/12/24 02:40:16;;;;;;;10.43;7.25;;;7.90;99.90;;;;;;5036998;28;20283;-78
2022/12/24 02:42:47;;;;;;;13.15;9.68;;;7.90;99.90;;;;;;5034569;28;20208;-81
2022/12/24 02:45:20;;;;;;;17.70;11.20;;;8.00;99.90;;;;;;5034804;28;20234;-79
2022/12/24 02:47:48;;;;;;;16.40;11.10;;;7.80;99.90;;;;;;5035159;28;20189;-79
2022/12/24 02:50:18;;;;;;;21.33;11.32;;;7.80;99.90;;;;;;5033738;28;20299;-79
2022/12/24 02:52:48;;;;;;;12.40;9.00;;;7.90;99.90;;;;;;5035980;28;20220;-78
2022/12/24 02:55:17;;;;;;;11.82;8.77;;;7.80;99.90;;;;;;5034397;28;20273;-79
2022/12/24 02:58:01;;;;;;;11.63;8.35;;;7.90;99.90;;;;;;5034857;28;20558;-78
2022/12/24 03:03:30;;;;;;;10.30;7.95;;;7.80;99.90;;;;;;5173825;23;20239;-80
2022/12/24 03:06:06;;;;;;;10.25;6.97;;;7.80;99.90;;;;;;5052996;28;20299;-81
2022/12/24 03:08:42;;;;;;;9.95;7.28;;;7.70;99.90;;;;;;5053083;28;20716;-79
2022/12/24 03:11:10;;;;;;;8.68;6.78;;;7.80;99.90;;;;;;5055770;28;20207;-81
2022/12/24 03:13:38;;;;;;;11.35;8.68;;;7.70;99.90;;;;;;5059232;28;20556;-76
2022/12/24 03:16:07;;;;;;;9.70;7.45;;;7.70;99.90;;;;;;5051469;28;20246;-78
2022/12/24 03:18:38;;;;;;;12.10;8.35;;;7.70;99.90;;;;;;5056257;28;20219;-78
2022/12/24 03:21:10;;;;;;;12.52;8.82;;;7.70;99.90;;;;;;5055921;28;20640;-81
2022/12/24 03:23:37;;;;;;;13.32;7.47;;;7.70;99.90;;;;;;5057219;28;20275;-78
2022/12/24 03:26:08;;;;;;;10.65;7.63;;;7.80;99.90;;;;;;5056296;28;20198;-81
2022/12/24 03:28:38;;;;;;;10.98;7.65;;;7.80;99.90;;;;;;5056651;28;20198;-77
2022/12/24 03:31:07;;;;;;;12.65;8.85;;;7.90;99.90;;;;;;5056517;28;20211;-78
2022/12/24 03:33:35;;;;;;;14.85;9.07;;;7.90;99.90;;;;;;5056484;28;20279;-80
2022/12/24 03:36:03;;;;;;;15.15;8.90;;;7.90;99.90;;;;;;5057199;28;20242;-77
2022/12/24 03:38:31;;;;;;;11.93;6.32;;;7.90;99.90;;;;;;5053934;28;20212;-79
2022/12/24 03:40:59;;;;;;;13.48;7.82;;;7.90;99.90;;;;;;5055735;28;20774;-85
2022/12/24 03:43:26;;;;;;;14.75;8.75;;;7.90;99.90;;;;;;5054654;28;20196;-81
2022/12/24 03:45:53;;;;;;;13.02;7.32;;;7.90;99.90;;;;;;5057044;28;20188;-76
2022/12/24 03:48:20;;;;;;;10.60;6.50;;;8.00;99.90;;;;;;5054553;28;20274;-77
2022/12/24 03:50:48;;;;;;;11.48;7.65;;;7.90;99.90;;;;;;5055296;28;20226;-81
2022/12/24 03:53:15;;;;;;;9.48;6.97;;;8.00;99.90;;;;;;5056206;28;20190;-77
2022/12/24 03:55:42;;;;;;;9.63;6.75;;;8.00;99.90;;;;;;5056293;28;20306;-84
2022/12/24 03:58:09;;;;;;;8.35;6.35;;;7.90;99.90;;;;;;5055987;28;20220;-82
2022/12/24 04:00:36;;;;;;;8.32;6.47;;;7.80;99.90;;;;;;5055665;28;20663;-75
2022/12/24 04:03:02;;;;;;;11.77;7.93;;;7.90;99.90;;;;;;5055933;28;20310;-81
2022/12/24 04:05:29;;;;;;;9.65;6.85;;;7.90;99.90;;;;;;5056216;28;20287;-77
2022/12/24 04:07:58;;;;;;;12.73;8.43;;;8.00;99.90;;;;;;5056263;28;20203;-82
2022/12/24 04:10:25;;;;;;;14.07;9.02;;;8.00;99.90;;;;;;5055645;28;20249;-81
2022/12/24 04:12:51;;;;;;;9.13;7.13;;;8.00;99.90;;;;;;5056169;28;20641;-81
2022/12/24 04:15:19;;;;;;;11.75;8.27;;;8.00;99.90;;;;;;5056408;28;20261;-79
2022/12/24 04:17:45;;;;;;;14.50;8.52;;;7.90;99.90;;;;;;5056261;28;20196;-79
2022/12/24 04:20:13;;;;;;;11.52;7.70;;;8.00;99.90;;;;;;5055313;28;20314;-78
2022/12/24 04:22:40;;;;;;;12.13;8.23;;;7.90;99.90;;;;;;5057713;28;20247;-79
2022/12/24 04:25:10;;;;;;;15.50;10.05;;;7.90;99.90;;;;;;5058441;28;20271;-79
2022/12/24 04:27:37;;;;;;;12.15;8.50;;;7.90;99.90;;;;;;5058888;28;20198;-83
2022/12/24 04:30:04;;;;;;;13.73;9.52;;;7.90;99.90;;;;;;5055577;28;20262;-76
2022/12/24 04:32:31;;;;;;;10.93;7.65;;;7.90;99.90;;;;;;5056159;28;20203;-82
2022/12/24 04:34:58;;;;;;;11.65;7.90;;;7.80;99.90;;;;;;5055912;28;20558;-79
2022/12/24 04:37:25;;;;;;;12.40;9.05;;;7.90;99.90;;;;;;5056150;28;20296;-80
2022/12/24 04:39:52;;;;;;;11.63;8.63;;;7.80;99.90;;;;;;5054572;28;20232;-78
2022/12/24 04:42:20;;;;;;;10.82;7.40;;;7.80;99.90;;;;;;5055539;28;20293;-80
2022/12/24 04:44:47;;;;;;;12.15;9.60;;;7.80;99.90;;;;;;5055768;28;20192;-82
2022/12/24 04:47:14;;;;;;;9.68;8.65;;;7.90;99.90;;;;;;5056163;28;20195;-78
2022/12/24 04:49:41;;;;;;;15.02;10.18;;;8.00;99.90;;;;;;5055184;28;20310;-82
2022/12/24 04:52:08;;;;;;;13.23;9.40;;;8.00;99.90;;;;;;5056554;28;20219;-83
2022/12/24 04:54:35;;;;;;;16.52;9.98;;;7.90;99.90;;;;;;5056057;28;20684;-80
2022/12/24 04:57:01;;;;;;;15.82;8.80;;;7.80;99.90;;;;;;5056083;28;20274;-82
2022/12/24 04:59:30;;;;;;;15.15;9.35;;;7.80;99.90;;;;;;5055206;28;20303;-82
2022/12/24 05:01:57;;;;;;;20.85;11.55;;;7.80;99.90;;;;;;5055457;28;20302;-81
2022/12/24 05:04:24;;;;;;;13.63;9.57;;;7.80;99.90;;;;;;5067558;28;20192;-75
2022/12/24 05:06:52;;;;;;;17.40;12.02;;;7.90;99.90;;;;;;5068179;28;20223;-75
2022/12/24 05:09:19;;;;;;;24.70;12.90;;;7.90;99.90;;;;;;5068560;28;20230;-75
2022/12/24 05:11:51;;;;;;;25.25;14.02;;;7.90;99.90;;;;;;5068453;28;20196;-74
2022/12/24 05:14:18;;;;;;;17.52;12.45;;;7.90;99.90;;;;;;5066451;28;20286;-76
2022/12/24 05:16:48;;;;;;;26.45;15.98;;;8.00;99.90;;;;;;5058269;28;20227;-82
2022/12/24 05:19:15;;;;;;;18.65;12.90;;;8.00;99.90;;;;;;5055339;28;20311;-75
2022/12/24 05:21:42;;;;;;;21.20;14.90;;;8.10;99.90;;;;;;5054762;28;20209;-74
2022/12/24 05:26:57;;;;;;;22.90;14.98;;;8.20;99.90;;;;;;5054568;28;20241;-79
2022/12/24 05:29:24;;;;;;;23.85;15.65;;;8.20;99.90;;;;;;5054390;28;20255;-78
2022/12/24 05:31:53;;;;;;;29.98;19.52;;;8.30;99.90;;;;;;5054787;28;20210;-78
2022/12/24 05:34:20;;;;;;;31.48;20.50;;;8.30;99.90;;;;;;5054341;28;20278;-81
2022/12/24 05:36:46;;;;;;;32.97;18.33;;;8.30;99.90;;;;;;5054801;28;20210;-78
2022/12/24 05:39:15;;;;;;;34.00;21.58;;;8.30;99.90;;;;;;5054007;28;20315;-78
2022/12/24 05:41:42;;;;;;;32.65;18.70;;;8.40;99.90;;;;;;5054122;28;20240;-80
2022/12/24 05:44:09;;;;;;;39.22;21.85;;;8.40;99.90;;;;;;5053964;28;20283;-78
2022/12/24 05:46:36;;;;;;;36.83;19.52;;;8.30;99.90;;;;;;5049597;28;20588;-79
2022/12/24 05:49:04;;;;;;;32.05;20.27;;;8.30;99.90;;;;;;5053716;28;20316;-76
2022/12/24 05:51:31;;;;;;;37.72;21.52;;;8.50;99.90;;;;;;5053811;28;20294;-78
2022/12/24 05:53:58;;;;;;;27.67;19.27;;;8.50;99.90;;;;;;5054120;28;20283;-78
2022/12/24 05:56:25;;;;;;;37.17;20.17;;;8.60;99.90;;;;;;5053867;28;20211;-80
2022/12/24 05:58:53;;;;;;;33.13;19.90;;;8.50;99.90;;;;;;5053697;28;20315;-81
2022/12/24 06:01:22;;;;;;;33.65;20.50;;;8.50;99.90;;;;;;5054102;28;20188;-80
2022/12/24 06:03:49;;;;;;;31.23;18.00;;;8.50;99.90;;;;;;5053938;28;20239;-79
2022/12/24 06:06:19;;;;;;;32.08;18.05;;;8.60;99.90;;;;;;5053750;28;20214;-82
2022/12/24 06:08:47;;;;;;;29.25;15.38;;;8.70;99.90;;;;;;5053437;28;20224;-76
2022/12/24 06:11:16;;;;;;;23.35;14.68;;;8.70;99.90;;;;;;5053657;28;20198;-81
2022/12/24 06:13:44;;;;;;;22.83;14.00;;;8.80;99.90;;;;;;5054426;28;20210;-79
2022/12/24 06:16:13;;;;;;;26.88;15.68;;;8.90;99.90;;;;;;5054205;28;20274;-80
2022/12/24 06:18:40;;;;;;;27.65;15.00;;;9.00;99.90;;;;;;5034446;28;20238;-77
2022/12/24 06:21:08;;;;;;;18.58;11.57;;;9.00;99.90;;;;;;5034820;28;20195;-77
2022/12/24 06:23:39;;;;;;;25.13;13.80;;;9.10;99.90;;;;;;5036674;28;20206;-76
2022/12/24 06:26:07;;;;;;;19.02;10.63;;;9.00;99.90;;;;;;5033912;28;20246;-78
2022/12/24 06:28:37;;;;;;;15.95;11.20;;;9.10;99.90;;;;;;5033541;28;20231;-77
2022/12/24 06:31:06;;;;;;;24.42;12.90;;;9.10;99.90;;;;;;5032920;28;20805;-80
2022/12/24 06:33:33;;;;;;;24.80;12.68;;;9.10;99.90;;;;;;5033499;28;20311;-76
2022/12/24 06:36:01;;;;;;;15.15;10.43;;;9.10;99.90;;;;;;5033317;28;20597;-80
2022/12/24 06:38:30;;;;;;;24.55;10.05;;;9.20;99.90;;;;;;5051711;28;20199;-80
2022/12/24 06:40:58;;;;;;;20.40;9.95;;;9.20;99.90;;;;;;5052694;28;20207;-76
2022/12/24 06:43:25;;;;;;;20.80;8.98;;;9.30;99.90;;;;;;5053598;28;20232;-77
2022/12/24 06:45:52;;;;;;;18.38;8.65;;;9.30;99.90;;;;;;5054615;28;20291;-80
2022/12/24 06:48:19;;;;;;;18.40;10.90;;;9.30;99.90;;;;;;5053864;28;20207;-76
2022/12/24 06:50:46;;;;;;;16.70;9.90;;;9.10;99.90;;;;;;5053605;28;20204;-77
2022/12/24 06:53:13;;;;;;;14.27;8.40;;;9.30;99.90;;;;;;5054553;28;20660;-78
2022/12/24 06:55:40;;;;;;;29.13;10.05;;;9.20;99.90;;;;;;5054523;28;20284;-77
2022/12/24 06:58:08;;;;;;;25.48;8.32;;;9.20;99.90;;;;;;5053544;28;20275;-78
2022/12/24 07:00:35;;;;;;;16.30;7.43;;;9.20;99.90;;;;;;5052241;28;20322;-78
2022/12/24 07:03:02;;;;;;;19.40;8.60;;;9.10;99.90;;;;;;5052693;28;20637;-76
2022/12/24 07:05:29;;;;;;;22.63;10.30;;;9.10;99.90;;;;;;5053513;28;20299;-81
2022/12/24 07:07:56;;;;;;;29.73;7.90;;;9.00;99.90;;;;;;5052639;28;20188;-78
2022/12/24 07:10:23;;;;;;;31.90;7.40;;;9.00;99.90;;;;;;5052258;28;20592;-81
2022/12/24 07:12:50;;;;;;;28.10;7.70;;;9.00;99.90;;;;;;5052572;28;20207;-80
2022/12/24 07:15:19;;;;;;;20.63;7.13;;;9.00;99.90;;;;;;5052916;28;20211;-76
2022/12/24 07:17:46;;;;;;;17.63;8.70;;;9.00;99.90;;;;;;5052777;28;20624;-77
2022/12/24 07:20:14;;;;;;;18.98;6.55;;;9.00;99.90;;;;;;5051882;28;20679;-78
2022/12/24 07:22:41;;;;;;;62.05;8.00;;;9.10;99.90;;;;;;5052242;28;20258;-77
2022/12/24 07:25:09;;;;;;;32.40;9.85;;;9.10;99.90;;;;;;5052752;28;20197;-78
2022/12/24 07:27:37;;;;;;;27.75;7.63;;;9.20;99.90;;;;;;5052610;28;20218;-79
2022/12/24 07:30:04;;;;;;;19.50;6.63;;;9.20;99.90;;;;;;5052043;28;20227;-79
2022/12/24 07:32:32;;;;;;;21.73;5.40;;;9.20;99.90;;;;;;5052704;28;20630;-79
2022/12/24 07:34:59;;;;;;;18.67;6.00;;;9.20;99.90;;;;;;5052200;28;20561;-79
2022/12/24 07:37:26;;;;;;;25.15;7.63;;;9.20;99.90;;;;;;5043501;28;20283;-75
2022/12/24 07:39:54;;;;;;;24.25;6.40;;;9.30;99.90;;;;;;5037641;28;20231;-78
2022/12/24 07:42:21;;;;;;;19.23;7.25;;;9.20;99.90;;;;;;5043272;28;20211;-75
2022/12/24 07:44:48;;;;;;;12.27;5.22;;;9.20;99.90;;;;;;5047268;28;20209;-78
2022/12/24 07:47:15;;;;;;;27.85;7.65;;;9.20;99.90;;;;;;5038092;28;20283;-78
2022/12/24 07:49:44;;;;;;;19.25;5.90;;;9.20;99.90;;;;;;5037814;28;20563;-83
2022/12/24 07:52:11;;;;;;;17.02;6.60;;;9.20;99.90;;;;;;5047081;28;20199;-80
2022/12/24 07:54:39;;;;;;;17.90;6.25;;;9.20;99.90;;;;;;5052460;28;20277;-78
2022/12/24 07:57:06;;;;;;;34.60;7.15;;;9.20;99.90;;;;;;5054134;28;20202;-76
2022/12/24 07:59:33;;;;;;;24.60;6.22;;;9.20;99.90;;;;;;5055207;28;20226;-81
2022/12/24 08:02:00;;;;;;;21.77;6.45;;;9.30;99.90;;;;;;5056620;28;20582;-79
2022/12/24 08:04:27;;;;;;;21.45;6.43;;;9.30;99.90;;;;;;5056209;28;20273;-79
2022/12/24 08:06:55;;;;;;;15.05;5.13;;;9.40;99.90;;;;;;5055656;28;20578;-79
2022/12/24 08:09:22;;;;;;;33.40;5.35;;;9.40;99.90;;;;;;5052303;28;20234;-81
2022/12/24 08:11:49;;;;;;;22.85;5.82;;;9.40;99.90;;;;;;5054742;28;20196;-80
2022/12/24 08:14:16;;;;;;;28.30;5.90;;;9.40;99.90;;;;;;5056283;28;20188;-80
2022/12/24 08:16:43;;;;;;;25.42;6.95;;;9.40;99.90;;;;;;5057265;28;20242;-76
2022/12/24 08:19:10;;;;;;;28.58;8.18;;;9.40;99.90;;;;;;5054670;28;20674;-77
2022/12/24 08:21:39;;;;;;;29.75;7.82;;;9.40;99.90;;;;;;5061849;28;20252;-82
2022/12/24 08:24:08;;;;;;;27.60;6.55;;;9.40;99.90;;;;;;5067947;28;20199;-81
2022/12/24 08:26:35;;;;;;;23.75;7.55;;;9.40;99.90;;;;;;5057567;28;20263;-82
2022/12/24 08:29:02;;;;;;;24.98;7.82;;;9.40;99.90;;;;;;5056679;28;20264;-78
2022/12/24 08:31:30;;;;;;;32.05;7.88;;;9.40;99.90;;;;;;5054978;28;20196;-78
2022/12/24 08:33:57;;;;;;;32.72;9.15;;;9.40;99.90;;;;;;5058128;28;20313;-79
2022/12/24 08:36:23;;;;;;;37.08;7.20;;;9.50;99.90;;;;;;5070627;28;20610;-76
2022/12/24 08:38:50;;;;;;;38.10;9.32;;;9.40;99.90;;;;;;5065901;28;20263;-78
2022/12/24 08:41:18;;;;;;;41.60;6.97;;;9.40;99.90;;;;;;5066376;28;20275;-76
2022/12/24 08:43:45;;;;;;;24.80;6.80;;;9.40;99.90;;;;;;5068765;28;20184;-74
2022/12/24 08:46:12;;;;;;;30.80;8.80;;;9.50;99.90;;;;;;5056184;28;20201;-77
2022/12/24 08:48:39;;;;;;;24.55;8.32;;;9.50;99.90;;;;;;5058059;28;20231;-75
2022/12/24 08:51:08;;;;;;;28.10;8.00;;;9.60;99.90;;;;;;5055819;28;20287;-73
2022/12/24 08:53:35;;;;;;;25.92;7.78;;;9.60;99.90;;;;;;5050780;28;20204;-73
2022/12/24 08:56:03;;;;;;;31.73;9.30;;;9.60;99.90;;;;;;5040836;28;20196;-75
2022/12/24 08:58:31;;;;;;;40.25;9.82;;;9.60;99.90;;;;;;5042679;28;20252;-75
2022/12/24 09:00:58;;;;;;;37.80;10.07;;;9.60;99.90;;;;;;5035699;28;20220;-75
2022/12/24 09:03:25;;;;;;;28.02;9.63;;;9.70;99.90;;;;;;5041367;28;20308;-75
2022/12/24 09:05:52;;;;;;;38.33;10.70;;;9.80;99.90;;;;;;5035477;28;20284;-75
2022/12/24 09:08:20;;;;;;;27.05;9.15;;;9.80;99.90;;;;;;5038911;28;20206;-76
2022/12/24 09:10:47;;;;;;;30.75;10.70;;;9.80;99.90;;;;;;5038327;28;20196;-77
2022/12/24 09:13:13;;;;;;;28.98;9.57;;;9.80;99.90;;;;;;5041652;28;20287;-75
2022/12/24 09:15:42;;;;;;;30.88;10.63;;;9.90;99.90;;;;;;5040258;28;20197;-75
2022/12/24 09:18:09;;;;;;;30.85;10.25;;;10.00;99.90;;;;;;5039614;28;20695;-75
2022/12/24 09:20:36;;;;;;;31.95;11.75;;;10.00;99.90;;;;;;5037678;28;20308;-73
2022/12/24 09:23:03;;;;;;;29.15;10.32;;;10.00;99.90;;;;;;5040920;28;20232;-75
2022/12/24 09:25:30;;;;;;;32.17;10.70;;;10.10;99.90;;;;;;5039705;28;20196;-75
2022/12/24 09:27:57;;;;;;;32.47;11.57;;;10.20;99.90;;;;;;5048904;28;20203;-74
2022/12/24 09:30:24;;;;;;;28.52;13.30;;;10.20;99.90;;;;;;5043175;28;20307;-74
2022/12/24 09:32:52;;;;;;;29.52;10.05;;;10.40;99.90;;;;;;5053261;28;20690;-75
2022/12/24 09:35:19;;;;;;;27.45;11.25;;;10.30;99.90;;;;;;5053472;28;20303;-75
2022/12/24 09:37:46;;;;;;;35.00;10.40;;;10.30;99.90;;;;;;5048807;28;20215;-76
2022/12/24 09:40:22;;;;;;;25.50;10.43;;;10.30;99.90;;;;;;5039291;28;20324;-75
2022/12/24 09:42:52;;;;;;;34.22;12.32;;;10.40;99.90;;;;;;5051011;28;20299;-76
2022/12/24 09:45:28;;;;;;;30.33;11.75;;;10.60;99.90;;;;;;5044442;28;20272;-75
2022/12/24 09:47:59;;;;;;;27.90;11.85;;;10.60;99.90;;;;;;5040428;28;20203;-75
2022/12/24 09:50:38;;;;;;;36.90;11.10;;;10.50;99.90;;;;;;5045551;28;20220;-77
2022/12/24 09:53:14;;;;;;;46.67;11.57;;;10.60;99.90;;;;;;5042466;28;20233;-74
2022/12/24 09:55:44;;;;;;;27.83;10.50;;;10.70;99.90;;;;;;5047887;28;20236;-75
2022/12/24 09:58:19;;;;;;;29.85;10.85;;;10.70;99.90;;;;;;5050669;28;20201;-78
2022/12/24 10:00:46;;;;;;;26.77;7.90;;;11.20;99.90;;;;;;5049067;28;20300;-75
2022/12/24 10:03:16;;;;;;;25.95;8.30;;;11.90;99.90;;;;;;5051500;28;20294;-77
2022/12/24 10:05:49;;;;;;;26.50;7.40;;;12.70;99.90;;;;;;5052037;28;20204;-77
2022/12/24 10:08:26;;;;;;;24.73;7.43;;;13.40;99.90;;;;;;5049573;28;20204;-76
2022/12/24 10:10:55;;;;;;;27.67;7.80;;;13.90;99.90;;;;;;5048952;28;20186;-77
2022/12/24 10:13:39;;;;;;;22.33;7.53;;;13.90;99.90;;;;;;5052583;28;20290;-76
2022/12/24 10:16:12;;;;;;;22.73;7.65;;;13.50;99.90;;;;;;5053009;28;20271;-77
2022/12/24 10:18:48;;;;;;;29.08;9.70;;;13.70;99.90;;;;;;5046931;28;20225;-76
2022/12/24 10:21:22;;;;;;;22.35;7.43;;;14.00;99.90;;;;;;5037176;28;20310;-78
2022/12/24 10:24:01;;;;;;;24.40;8.18;;;13.50;99.90;;;;;;5040457;28;20577;-77
2022/12/24 10:26:35;;;;;;;26.88;7.65;;;13.40;99.90;;;;;;5043991;28;20192;-75
2022/12/24 10:29:11;;;;;;;24.75;7.20;;;12.90;99.90;;;;;;5066651;28;20219;-79
2022/12/24 10:31:44;;;;;;;24.08;8.50;;;12.50;99.90;;;;;;5052341;28;20607;-78
2022/12/24 10:34:15;;;;;;;28.35;8.40;;;12.40;99.90;;;;;;5051456;28;20207;-76
2022/12/24 10:36:42;;;;;;;21.83;7.22;;;12.10;99.90;;;;;;5053321;28;20215;-77
2022/12/24 10:39:17;;;;;;;22.75;8.93;;;12.10;99.90;;;;;;5052137;28;20318;-78
2022/12/24 10:41:44;;;;;;;21.33;8.35;;;11.70;99.90;;;;;;5050694;28;20314;-77
2022/12/24 10:44:17;;;;;;;24.88;7.60;;;11.50;99.90;;;;;;5273125;23;20234;-71
2022/12/24 10:46:45;;;;;;;28.63;7.68;;;11.20;99.90;;;;;;5036522;28;20296;-72
2022/12/24 10:49:16;;;;;;;22.73;7.60;;;11.00;99.90;;;;;;5032161;28;20317;-70
2022/12/24 10:51:49;;;;;;;31.75;9.20;;;11.00;99.90;;;;;;5025345;28;20203;-72
2022/12/24 10:54:19;;;;;;;32.05;7.15;;;10.80;99.90;;;;;;5037784;28;20297;-70
2022/12/24 10:56:49;;;;;;;26.63;9.50;;;10.70;99.90;;;;;;5032501;28;20206;-71
2022/12/24 10:59:28;;;;;;;26.42;9.00;;;10.70;99.90;;;;;;5030521;28;20263;-71
2022/12/24 11:01:56;;;;;;;38.05;9.82;;;10.80;99.90;;;;;;5028180;28;20211;-72
2022/12/24 11:04:26;;;;;;;35.88;8.45;;;10.80;99.90;;;;;;5031527;28;20230;-75
2022/12/24 11:06:56;;;;;;;18.73;7.40;;;10.80;99.90;;;;;;5033474;28;20283;-75
2022/12/24 11:09:25;;;;;;;26.10;8.40;;;10.90;99.90;;;;;;5032829;28;20309;-73
2022/12/24 11:11:52;;;;;;;26.55;9.98;;;10.90;99.90;;;;;;5032537;28;20294;-74
2022/12/24 11:14:21;;;;;;;19.60;6.55;;;11.00;99.90;;;;;;5036898;28;20235;-71
2022/12/24 11:16:51;;;;;;;27.40;8.30;;;11.00;99.90;;;;;;5024151;28;20563;-71
2022/12/24 11:19:21;;;;;;;25.55;9.45;;;11.20;99.90;;;;;;5016276;28;20749;-75
2022/12/24 11:21:59;;;;;;;25.83;8.93;;;11.30;99.90;;;;;;5016646;28;20307;-73
2022/12/24 11:24:28;;;;;;;24.60;6.93;;;11.30;99.90;;;;;;5015723;28;20233;-72
2022/12/24 11:27:15;;;;;;;24.38;7.88;;;11.30;99.90;;;;;;5015321;28;20215;-71
2022/12/24 11:29:43;;;;;;;31.15;8.23;;;11.40;99.90;;;;;;5014096;28;20239;-72
2022/12/24 11:32:18;;;;;;;30.30;7.90;;;11.30;99.90;;;;;;5017066;28;20212;-73
2022/12/24 11:34:45;;;;;;;29.10;8.38;;;11.20;99.90;;;;;;5019652;28;20198;-73
2022/12/24 11:37:16;;;;;;;32.47;9.95;;;11.10;99.90;;;;;;5020615;28;20351;-71
2022/12/24 11:39:52;;;;;;;24.30;8.23;;;11.10;99.90;;;;;;5021661;28;20231;-76
2022/12/24 11:42:32;;;;;;;29.70;8.60;;;11.10;99.90;;;;;;5023378;28;20214;-78
2022/12/24 11:45:04;;;;;;;19.23;8.20;;;11.20;99.90;;;;;;5024341;28;20282;-71
2022/12/24 11:47:35;;;;;;;26.50;8.23;;;11.20;99.90;;;;;;5030515;28;20199;-71
2022/12/24 11:50:27;;;;;;;18.30;7.65;;;11.30;99.90;;;;;;5043637;28;20264;-70
2022/12/24 11:53:00;;;;;;;26.98;8.30;;;11.20;99.90;;;;;;5046460;28;20226;-71
2022/12/24 11:55:38;;;;;;;39.50;9.45;;;11.20;99.90;;;;;;5037651;28;20610;-71
2022/12/24 11:58:17;;;;;;;29.23;9.00;;;11.20;99.90;;;;;;5047516;28;20249;-72
2022/12/24 12:00:47;;;;;;;33.00;7.78;;;11.20;99.90;;;;;;5057465;28;20237;-72
2022/12/24 12:03:25;;;;;;;26.45;7.88;;;11.10;99.90;;;;;;5057357;28;20197;-72
2022/12/24 12:05:54;;;;;;;27.48;8.32;;;11.10;99.90;;;;;;5055932;28;20207;-74
2022/12/24 12:08:23;;;;;;;28.25;7.57;;;11.20;99.90;;;;;;5054724;28;20207;-74
2022/12/24 12:10:52;;;;;;;28.75;9.07;;;11.20;99.90;;;;;;5056266;28;20280;-72
2022/12/24 12:13:31;;;;;;;27.55;9.25;;;11.20;99.90;;;;;;5055058;28;20222;-72
2022/12/24 12:16:08;;;;;;;27.35;9.40;;;11.20;99.90;;;;;;5052318;28;20198;-73
2022/12/24 12:18:38;;;;;;;24.23;9.82;;;11.20;99.90;;;;;;5053724;28;20281;-72
2022/12/24 12:21:16;;;;;;;44.92;12.43;;;11.10;99.90;;;;;;5054692;28;20231;-74
2022/12/24 12:23:47;;;;;;;36.10;8.95;;;11.10;99.90;;;;;;5055063;28;20191;-75
2022/12/24 12:26:22;;;;;;;24.48;8.75;;;11.10;99.90;;;;;;5054834;28;20247;-72
2022/12/24 12:28:53;;;;;;;25.23;10.43;;;11.10;99.90;;;;;;5055024;28;20313;-74
2022/12/24 12:31:28;;;;;;;25.38;8.43;;;11.10;99.90;;;;;;5055137;28;20241;-68
2022/12/24 12:34:00;;;;;;;26.45;10.48;;;11.00;99.90;;;;;;5055922;28;20187;-72
2022/12/24 12:36:42;;;;;;;30.67;12.35;;;11.00;99.90;;;;;;5054857;28;20682;-73
2022/12/24 12:39:10;;;;;;;29.08;11.15;;;10.90;99.90;;;;;;5034635;28;20222;-71
2022/12/24 12:41:49;;;;;;;27.02;11.77;;;10.90;99.90;;;;;;5038865;28;20205;-71
2022/12/24 12:44:27;;;;;;;37.92;11.40;;;11.00;99.90;;;;;;5035431;28;20234;-71
2022/12/24 12:47:21;;;;;;;28.67;11.85;;;11.00;99.90;;;;;;5036046;28;20206;-71
2022/12/24 12:49:56;;;;;;;28.77;11.35;;;11.00;99.90;;;;;;5024130;28;20669;-70
2022/12/24 12:52:40;;;;;;;30.60;10.45;;;11.10;99.90;;;;;;5037412;28;20563;-72
2022/12/24 12:55:22;;;;;;;37.95;13.20;;;11.00;99.90;;;;;;5044158;28;20301;-72
2022/12/24 12:57:51;;;;;;;41.08;11.93;;;11.00;99.90;;;;;;5035838;28;20308;-73
2022/12/24 13:00:19;;;;;;;26.15;13.70;;;11.10;99.90;;;;;;5045739;28;20299;-72
2022/12/24 13:03:25;;;;;;;35.35;11.45;;;11.20;99.90;;;;;;5055153;28;20308;-73
2022/12/24 13:06:24;;;;;;;22.77;10.18;;;11.10;99.90;;;;;;5038842;28;20674;-73